Time;durP1;ratioP1;P1;durP2;ratioP2;P2;SDS_P1;SDS_P2;PMS_P1;PMS_P2;Temp;Humidity;BMP_temperature;BMP_pressure;BME280_temperature;BME280_humidity;BME280_pressure;Samples;Min_cycle;Max_cycle;Signal;HPM_P1;HPM_P2
2022/06/01 00:01:18;;;;;;;3.23;2.83;;;;;;;;;;5005673;28;20224;-72
2022/06/01 00:03:43;;;;;;;4.57;2.90;;;;;;;;;;5017587;28;20247;-73
2022/06/01 00:06:09;;;;;;;3.30;3.00;;;;;;;;;;5029653;28;20306;-73
2022/06/01 00:08:37;;;;;;;2.80;2.60;;;;;;;;;;5027768;28;20733;-73
2022/06/01 00:11:02;;;;;;;3.30;3.00;;;;;;;;;;4984877;28;20231;-73
2022/06/01 00:13:28;;;;;;;2.87;2.60;;;;;;;;;;5010037;28;20227;-73
2022/06/01 00:15:56;;;;;;;3.10;2.90;;;;;;;;;;5021763;28;20353;-73
2022/06/01 00:18:22;;;;;;;4.30;2.90;;;;;;;;;;5037551;28;20238;-73
2022/06/01 00:20:50;;;;;;;3.20;2.90;;;;;;;;;;4992092;28;20233;-73
2022/06/01 00:23:15;;;;;;;3.17;2.90;;;;;;;;;;5032060;28;20607;-74
2022/06/01 00:25:43;;;;;;;3.10;2.90;;;;;;;;;;5033473;28;20236;-73
2022/06/01 00:28:11;;;;;;;3.20;3.00;;;;;;;;;;5031209;28;20225;-73
2022/06/01 00:30:39;;;;;;;2.80;2.60;;;;;;;;;;5033213;28;20302;-73
2022/06/01 00:33:04;;;;;;;3.10;2.80;;;;;;;;;;5018683;28;20227;-72
2022/06/01 00:35:32;;;;;;;3.30;2.70;;;;;;;;;;5020618;28;20238;-73
2022/06/01 00:37:59;;;;;;;3.20;3.00;;;;;;;;;;5018332;28;20215;-73
2022/06/01 00:40:28;;;;;;;4.60;3.40;;;;;;;;;;5006093;28;20227;-73
2022/06/01 00:42:57;;;;;;;3.77;3.47;;;;;;;;;;5030384;28;20228;-73
2022/06/01 00:45:26;;;;;;;3.30;3.00;;;;;;;;;;5012613;28;20670;-74
2022/06/01 00:47:56;;;;;;;3.07;2.87;;;;;;;;;;4996786;28;20254;-71
2022/06/01 00:50:33;;;;;;;4.53;3.20;;;;;;;;;;5018991;28;20225;-72
2022/06/01 00:53:05;;;;;;;3.87;3.27;;;;;;;;;;5004792;28;20234;-73
2022/06/01 00:55:36;;;;;;;3.20;3.00;;;;;;;;;;4993282;28;20281;-73
2022/06/01 00:58:11;;;;;;;3.43;3.13;;;;;;;;;;5013126;28;20257;-73
2022/06/01 01:00:40;;;;;;;3.30;3.10;;;;;;;;;;5003914;28;20220;-73
2022/06/01 01:03:06;;;;;;;3.20;3.00;;;;;;;;;;5034020;28;20308;-73
2022/06/01 01:05:33;;;;;;;4.00;3.57;;;;;;;;;;5034748;28;20701;-72
2022/06/01 01:07:58;;;;;;;3.70;3.40;;;;;;;;;;5018980;28;20703;-73
2022/06/01 01:10:26;;;;;;;3.60;3.30;;;;;;;;;;5037708;28;20226;-73
2022/06/01 01:12:58;;;;;;;3.80;3.50;;;;;;;;;;5038029;28;20271;-73
2022/06/01 01:15:26;;;;;;;3.37;3.10;;;;;;;;;;5035917;28;20221;-73
2022/06/01 01:17:52;;;;;;;3.80;3.50;;;;;;;;;;5005800;28;20785;-72
2022/06/01 01:20:23;;;;;;;3.70;3.40;;;;;;;;;;4998872;28;20698;-73
2022/06/01 01:23:11;;;;;;;4.67;3.50;;;;;;;;;;5032318;28;20228;-73
2022/06/01 01:25:39;;;;;;;5.07;3.37;;;;;;;;;;5019609;28;20676;-74
2022/06/01 01:28:05;;;;;;;3.50;3.23;;;;;;;;;;5018963;28;20303;-74
2022/06/01 01:30:37;;;;;;;3.30;3.00;;;;;;;;;;4988229;28;20223;-73
2022/06/01 01:33:08;;;;;;;4.80;3.20;;;;;;;;;;5030711;28;20883;-73
2022/06/01 01:35:34;;;;;;;3.90;2.70;;;;;;;;;;4985277;28;20221;-73
2022/06/01 01:38:06;;;;;;;3.70;3.40;;;;;;;;;;5021805;28;20240;-74
2022/06/01 01:40:36;;;;;;;3.23;2.93;;;;;;;;;;4999147;28;20223;-73
2022/06/01 01:43:07;;;;;;;3.43;3.17;;;;;;;;;;5035332;28;20238;-73
2022/06/01 01:45:39;;;;;;;4.57;3.10;;;;;;;;;;5031651;28;20228;-73
2022/06/01 01:48:05;;;;;;;3.27;3.07;;;;;;;;;;4997541;28;20302;-73
2022/06/01 01:50:33;;;;;;;3.43;3.13;;;;;;;;;;5040568;28;20340;-74
2022/06/01 01:52:58;;;;;;;3.33;3.13;;;;;;;;;;5021507;28;20311;-74
2022/06/01 01:55:40;;;;;;;3.40;3.10;;;;;;;;;;5023480;28;20307;-73
2022/06/01 01:58:39;;;;;;;3.80;3.50;;;;;;;;;;5012535;28;20230;-72
2022/06/01 02:01:13;;;;;;;3.70;3.40;;;;;;;;;;5000118;28;20236;-74
2022/06/01 02:03:51;;;;;;;3.23;3.03;;;;;;;;;;5014898;28;20292;-73
2022/06/01 02:06:43;;;;;;;3.27;3.07;;;;;;;;;;5020803;28;20243;-74
2022/06/01 02:09:12;;;;;;;3.80;3.50;;;;;;;;;;5020775;28;20225;-73
2022/06/01 02:14:34;;;;;;;3.30;3.00;;;;;;;;;;5002888;28;20727;-74
2022/06/01 02:17:07;;;;;;;4.70;3.43;;;;;;;;;;5032993;28;20231;-73
2022/06/01 02:19:45;;;;;;;3.50;3.20;;;;;;;;;;5010893;28;20224;-73
2022/06/01 02:22:10;;;;;;;3.17;2.97;;;;;;;;;;4996578;28;20228;-74
2022/06/01 02:24:36;;;;;;;3.43;3.20;;;;;;;;;;4997138;28;20224;-74
2022/06/01 02:27:04;;;;;;;3.53;3.03;;;;;;;;;;5040237;28;20821;-73
2022/06/01 02:29:37;;;;;;;3.73;3.23;;;;;;;;;;5013339;28;20221;-74
2022/06/01 02:32:05;;;;;;;3.50;3.20;;;;;;;;;;4991006;28;20220;-73
2022/06/01 02:34:33;;;;;;;3.60;3.30;;;;;;;;;;5014164;28;20607;-73
2022/06/01 02:37:04;;;;;;;3.20;3.00;;;;;;;;;;5015030;28;20204;-73
2022/06/01 02:39:30;;;;;;;3.40;3.13;;;;;;;;;;5019705;28;20228;-73
2022/06/01 02:42:30;;;;;;;3.60;3.30;;;;;;;;;;4990159;28;20228;-72
2022/06/01 02:44:59;;;;;;;3.80;3.47;;;;;;;;;;4983003;28;20240;-73
2022/06/01 02:47:31;;;;;;;3.70;3.40;;;;;;;;;;5013104;28;20220;-73
2022/06/01 02:49:57;;;;;;;3.50;3.20;;;;;;;;;;5012451;28;20223;-73
2022/06/01 02:52:22;;;;;;;3.60;3.40;;;;;;;;;;5010432;28;20235;-73
2022/06/01 02:54:48;;;;;;;3.37;3.17;;;;;;;;;;5024033;28;20216;-73
2022/06/01 02:57:14;;;;;;;3.37;3.17;;;;;;;;;;5015986;28;20311;-73
2022/06/01 02:59:42;;;;;;;3.53;3.30;;;;;;;;;;5029981;28;20220;-73
2022/06/01 03:02:13;;;;;;;3.43;2.83;;;;;;;;;;5005042;28;20224;-73
2022/06/01 03:04:42;;;;;;;3.40;3.10;;;;;;;;;;4995899;28;20220;-73
2022/06/01 03:07:12;;;;;;;4.07;3.77;;;;;;;;;;4996080;28;20556;-73
2022/06/01 03:09:38;;;;;;;3.60;3.30;;;;;;;;;;5011055;28;20729;-73
2022/06/01 03:12:06;;;;;;;4.00;3.70;;;;;;;;;;5017175;28;20693;-71
2022/06/01 03:14:32;;;;;;;4.13;3.73;;;;;;;;;;5001753;28;20222;-72
2022/06/01 03:16:57;;;;;;;4.30;3.90;;;;;;;;;;5014996;28;20213;-71
2022/06/01 03:19:23;;;;;;;5.73;4.43;;;;;;;;;;5014926;28;20633;-71
2022/06/01 03:21:51;;;;;;;4.50;4.13;;;;;;;;;;5016576;28;20232;-73
2022/06/01 03:24:20;;;;;;;4.20;3.90;;;;;;;;;;5034195;28;20224;-72
2022/06/01 03:26:47;;;;;;;5.00;4.50;;;;;;;;;;5020756;28;20235;-72
2022/06/01 03:29:13;;;;;;;4.80;4.40;;;;;;;;;;5017355;28;20761;-72
2022/06/01 03:31:38;;;;;;;5.00;4.60;;;;;;;;;;5021316;28;20277;-72
2022/06/01 03:34:04;;;;;;;7.03;4.40;;;;;;;;;;5039070;28;20220;-73
2022/06/01 03:36:29;;;;;;;5.00;4.60;;;;;;;;;;5029750;28;20732;-73
2022/06/01 03:38:55;;;;;;;5.17;4.53;;;;;;;;;;5017516;28;20231;-72
2022/06/01 03:41:22;;;;;;;5.63;4.57;;;;;;;;;;5033855;28;20615;-74
2022/06/01 03:46:32;;;;;;;4.90;4.50;;;;;;;;;;5017612;28;20231;-73
2022/06/01 03:49:01;;;;;;;5.20;4.70;;;;;;;;;;5020409;28;20717;-73
2022/06/01 03:51:29;;;;;;;5.00;4.63;;;;;;;;;;5004470;28;20219;-72
2022/06/01 03:53:56;;;;;;;5.47;5.07;;;;;;;;;;5020243;28;20232;-73
2022/06/01 03:56:22;;;;;;;4.80;4.40;;;;;;;;;;5015872;28;20787;-73
2022/06/01 03:58:50;;;;;;;5.23;4.73;;;;;;;;;;5031693;28;20220;-73
2022/06/01 04:01:18;;;;;;;5.23;4.83;;;;;;;;;;5016589;28;20234;-73
2022/06/01 04:03:44;;;;;;;5.07;4.57;;;;;;;;;;5019682;28;20224;-72
2022/06/01 04:06:09;;;;;;;5.03;4.63;;;;;;;;;;5017223;28;20774;-72
2022/06/01 04:08:34;;;;;;;5.37;4.90;;;;;;;;;;5018420;28;20654;-73
2022/06/01 04:11:00;;;;;;;4.80;4.40;;;;;;;;;;5041583;28;20760;-74
2022/06/01 04:13:26;;;;;;;5.27;4.77;;;;;;;;;;5016502;28;20318;-73
2022/06/01 04:15:52;;;;;;;6.63;4.90;;;;;;;;;;4998426;28;20224;-72
2022/06/01 04:18:17;;;;;;;5.40;4.90;;;;;;;;;;4996977;28;20623;-73
2022/06/01 04:20:45;;;;;;;4.83;4.43;;;;;;;;;;5002017;28;20312;-73
2022/06/01 04:23:11;;;;;;;4.93;4.60;;;;;;;;;;4981344;28;20311;-72
2022/06/01 04:25:36;;;;;;;5.30;4.90;;;;;;;;;;5040449;28;20884;-73
2022/06/01 04:28:05;;;;;;;5.97;5.33;;;;;;;;;;5036776;28;20764;-72
2022/06/01 04:30:33;;;;;;;5.63;5.17;;;;;;;;;;5052893;28;20571;-72
2022/06/01 04:33:01;;;;;;;5.17;4.77;;;;;;;;;;5033126;28;20737;-72
2022/06/01 04:35:29;;;;;;;5.40;4.77;;;;;;;;;;5016730;28;20220;-71
2022/06/01 04:38:12;;;;;;;5.37;4.87;;;;;;;;;;4999364;28;20315;-72
2022/06/01 04:40:47;;;;;;;5.43;5.00;;;;;;;;;;5044991;28;20231;-73
2022/06/01 04:43:14;;;;;;;6.00;4.67;;;;;;;;;;5001854;28;20322;-71
2022/06/01 04:45:39;;;;;;;4.90;4.50;;;;;;;;;;5019635;28;20712;-72
2022/06/01 04:48:08;;;;;;;6.83;5.90;;;;;;;;;;5022227;28;20223;-74
2022/06/01 04:50:42;;;;;;;6.70;6.10;;;;;;;;;;5012587;28;20634;-73
2022/06/01 04:53:14;;;;;;;6.67;6.07;;;;;;;;;;5018262;28;20220;-73
2022/06/01 04:55:40;;;;;;;6.23;5.63;;;;;;;;;;5026721;28;20228;-72
2022/06/01 04:58:11;;;;;;;5.93;5.53;;;;;;;;;;5017510;28;20224;-72
2022/06/01 05:00:58;;;;;;;6.33;5.83;;;;;;;;;;5033812;28;20227;-73
2022/06/01 05:03:25;;;;;;;6.60;6.00;;;;;;;;;;5006016;28;20225;-73
2022/06/01 05:05:51;;;;;;;6.27;5.77;;;;;;;;;;5035809;28;20235;-72
2022/06/01 05:08:16;;;;;;;5.80;5.30;;;;;;;;;;5029639;28;20222;-74
2022/06/01 05:10:42;;;;;;;5.93;5.47;;;;;;;;;;5016120;28;20231;-74
2022/06/01 05:13:08;;;;;;;5.47;5.07;;;;;;;;;;5026675;28;20320;-74
2022/06/01 05:18:12;;;;;;;6.67;6.00;;;;;;;;;;4996585;28;20287;-73
2022/06/01 05:20:38;;;;;;;7.20;6.70;;;;;;;;;;4951193;28;20221;-72
2022/06/01 05:23:09;;;;;;;6.70;6.10;;;;;;;;;;4975411;28;20241;-73
2022/06/01 05:25:34;;;;;;;5.97;5.47;;;;;;;;;;5004242;28;20230;-74
2022/06/01 05:28:00;;;;;;;6.20;5.70;;;;;;;;;;4969835;28;20727;-72
2022/06/01 05:30:25;;;;;;;6.57;6.07;;;;;;;;;;4964628;28;20750;-72
2022/06/01 05:32:53;;;;;;;6.67;6.00;;;;;;;;;;4997752;28;20263;-72
2022/06/01 05:35:21;;;;;;;6.53;5.93;;;;;;;;;;4982101;28;20267;-73
2022/06/01 05:37:47;;;;;;;6.90;6.30;;;;;;;;;;4984576;28;20217;-73
2022/06/01 05:40:15;;;;;;;6.60;6.10;;;;;;;;;;4984975;28;20305;-72
2022/06/01 05:42:42;;;;;;;6.77;6.23;;;;;;;;;;4983002;28;20224;-73
2022/06/01 05:45:09;;;;;;;6.70;6.10;;;;;;;;;;4995786;28;20698;-72
2022/06/01 05:47:36;;;;;;;6.43;5.83;;;;;;;;;;4979056;28;20319;-72
2022/06/01 05:50:03;;;;;;;5.50;5.10;;;;;;;;;;4945238;28;20209;-72
2022/06/01 05:52:31;;;;;;;6.50;5.90;;;;;;;;;;4960273;28;20308;-72
2022/06/01 05:54:59;;;;;;;6.30;5.80;;;;;;;;;;4960747;28;20830;-73
2022/06/01 05:57:24;;;;;;;6.70;6.10;;;;;;;;;;4959236;28;20218;-72
2022/06/01 05:59:49;;;;;;;5.80;5.40;;;;;;;;;;4965422;28;20223;-72
2022/06/01 06:02:19;;;;;;;6.60;6.00;;;;;;;;;;4967564;28;20232;-73
2022/06/01 06:04:47;;;;;;;7.20;5.60;;;;;;;;;;4949436;28;20225;-72
2022/06/01 06:07:15;;;;;;;6.67;5.60;;;;;;;;;;4962305;28;20342;-72
2022/06/01 06:09:40;;;;;;;6.03;5.53;;;;;;;;;;4950068;28;20216;-71
2022/06/01 06:12:08;;;;;;;5.93;5.33;;;;;;;;;;4976644;28;20317;-71
2022/06/01 06:14:36;;;;;;;5.80;5.30;;;;;;;;;;4969319;28;20225;-69
2022/06/01 06:17:02;;;;;;;5.50;5.00;;;;;;;;;;4987295;28;20219;-71
2022/06/01 06:19:27;;;;;;;4.37;3.97;;;;;;;;;;5015089;28;20600;-72
2022/06/01 06:21:53;;;;;;;4.20;3.90;;;;;;;;;;5025838;28;20690;-72
2022/06/01 06:24:19;;;;;;;4.03;3.72;;;;;;;;;;5012124;28;20307;-72
2022/06/01 06:26:47;;;;;;;5.45;4.60;;;;;;;;;;5010995;28;20228;-72
2022/06/01 06:29:13;;;;;;;5.85;4.40;;;;;;;;;;4977503;28;20267;-72
2022/06/01 06:31:39;;;;;;;4.72;4.32;;;;;;;;;;4995848;28;20710;-71
2022/06/01 06:34:08;;;;;;;4.50;4.10;;;;;;;;;;4994860;28;20314;-71
2022/06/01 06:36:38;;;;;;;4.63;4.18;;;;;;;;;;5019628;28;20224;-72
2022/06/01 06:39:03;;;;;;;4.10;3.80;;;;;;;;;;4985081;28;20311;-73
2022/06/01 06:41:34;;;;;;;4.03;3.63;;;;;;;;;;5017500;28;20312;-73
2022/06/01 06:44:00;;;;;;;4.22;3.83;;;;;;;;;;4984128;28;20221;-73
2022/06/01 06:46:28;;;;;;;4.32;3.92;;;;;;;;;;5015618;28;20236;-73
2022/06/01 06:48:53;;;;;;;4.50;4.10;;;;;;;;;;5035110;28;20229;-72
2022/06/01 06:51:19;;;;;;;4.80;4.40;;;;;;;;;;5016947;28;20616;-74
2022/06/01 06:53:45;;;;;;;4.63;4.22;;;;;;;;;;5001092;28;20315;-73
2022/06/01 06:56:13;;;;;;;5.07;4.30;;;;;;;;;;5016562;28;20209;-74
2022/06/01 06:58:41;;;;;;;5.28;4.40;;;;;;;;;;5000672;28;20256;-73
2022/06/01 07:01:07;;;;;;;4.43;4.13;;;;;;;;;;5000245;28;20307;-72
2022/06/01 07:03:35;;;;;;;5.17;4.30;;;;;;;;;;4999730;28;20212;-73
2022/06/01 07:06:09;;;;;;;4.43;4.00;;;;;;;;;;4996536;28;20379;-73
2022/06/01 07:08:35;;;;;;;3.97;3.60;;;;;;;;;;5016617;28;20221;-74
2022/06/01 07:11:04;;;;;;;4.10;3.80;;;;;;;;;;4988548;28;20221;-73
2022/06/01 07:13:29;;;;;;;4.00;3.60;;;;;;;;;;5027965;28;20240;-73
2022/06/01 07:16:17;;;;;;;3.85;3.50;;;;;;;;;;5007722;28;20244;-73
2022/06/01 07:18:47;;;;;;;4.75;3.75;;;;;;;;;;4970148;28;20320;-72
2022/06/01 07:21:14;;;;;;;4.15;3.70;;;;;;;;;;4973561;28;20227;-72
2022/06/01 07:23:42;;;;;;;3.90;3.60;;;;;;;;;;4991114;28;20270;-72
2022/06/01 07:26:10;;;;;;;4.00;3.70;;;;;;;;;;4974461;28;20267;-71
2022/06/01 07:28:38;;;;;;;4.10;3.78;;;;;;;;;;5007323;28;20306;-72
2022/06/01 07:31:04;;;;;;;3.97;3.50;;;;;;;;;;4968564;28;20220;-73
2022/06/01 07:33:29;;;;;;;3.72;3.40;;;;;;;;;;4986452;28;20220;-73
2022/06/01 07:35:58;;;;;;;3.50;3.20;;;;;;;;;;4983933;28;20231;-73
2022/06/01 07:44:19;;;;;;;5.93;3.40;;;;;;;;;;4994714;28;20304;-74
2022/06/01 07:46:47;;;;;;;3.40;3.10;;;;;;;;;;5005720;28;20243;-74
2022/06/01 07:49:18;;;;;;;3.80;3.50;;;;;;;;;;4982898;28;20627;-73
2022/06/01 07:52:00;;;;;;;3.58;3.35;;;;;;;;;;4960458;28;20254;-72
2022/06/01 07:54:28;;;;;;;3.42;3.13;;;;;;;;;;5004252;28;20217;-73
2022/06/01 07:56:53;;;;;;;3.63;3.33;;;;;;;;;;5002973;28;20213;-75
2022/06/01 07:59:20;;;;;;;3.22;2.75;;;;;;;;;;5004383;28;20320;-74
2022/06/01 08:01:49;;;;;;;3.40;3.10;;;;;;;;;;4980468;28;20229;-73
2022/06/01 08:04:17;;;;;;;2.80;2.65;;;;;;;;;;5010523;28;20221;-76
2022/06/01 08:06:45;;;;;;;4.45;3.22;;;;;;;;;;5000150;28;20224;-75
2022/06/01 08:09:13;;;;;;;3.00;2.80;;;;;;;;;;4966194;28;20221;-76
2022/06/01 08:14:27;;;;;;;2.58;2.40;;;;;;;;;;4997760;28;20224;-75
2022/06/01 08:16:55;;;;;;;2.92;2.60;;;;;;;;;;4993234;28;20255;-74
2022/06/01 08:19:23;;;;;;;3.03;2.83;;;;;;;;;;4997954;28;20225;-72
2022/06/01 08:21:48;;;;;;;3.08;2.78;;;;;;;;;;5014396;28;20655;-74
2022/06/01 08:24:17;;;;;;;2.58;2.30;;;;;;;;;;5025042;28;20222;-75
2022/06/01 08:26:44;;;;;;;1.98;1.88;;;;;;;;;;5024292;28;20241;-75
2022/06/01 08:29:12;;;;;;;2.45;1.90;;;;;;;;;;4999487;28;20649;-74
2022/06/01 08:31:38;;;;;;;1.73;1.63;;;;;;;;;;5017225;28;20697;-73
2022/06/01 08:34:06;;;;;;;2.10;2.00;;;;;;;;;;5014809;28;20319;-72
2022/06/01 08:36:32;;;;;;;2.20;2.00;;;;;;;;;;5020166;28;20219;-72
2022/06/01 08:39:01;;;;;;;3.45;2.30;;;;;;;;;;4990361;28;20285;-73
2022/06/01 08:41:35;;;;;;;2.20;2.00;;;;;;;;;;4985307;28;20270;-74
2022/06/01 08:44:11;;;;;;;2.40;2.30;;;;;;;;;;4999110;28;20374;-74
2022/06/01 08:46:37;;;;;;;181.27;24.95;;;;;;;;;;5010052;28;20290;-73
2022/06/01 08:49:09;;;;;;;36.72;7.28;;;;;;;;;;4998611;28;20216;-73
2022/06/01 08:51:39;;;;;;;1.80;1.70;;;;;;;;;;4977941;28;20220;-72
2022/06/01 08:54:05;;;;;;;1.90;1.80;;;;;;;;;;5012562;28;20228;-73
2022/06/01 08:56:36;;;;;;;3.42;2.22;;;;;;;;;;4996039;28;20228;-73
2022/06/01 08:59:23;;;;;;;2.75;2.03;;;;;;;;;;5016141;28;20216;-72
2022/06/01 09:02:18;;;;;;;7.90;2.13;;;;;;;;;;5025507;28;20236;-73
2022/06/01 09:05:07;;;;;;;2.60;1.95;;;;;;;;;;5020648;28;20224;-73
2022/06/01 09:07:53;;;;;;;3.03;1.70;;;;;;;;;;5001952;28;20227;-72
2022/06/01 09:10:50;;;;;;;8.32;3.50;;;;;;;;;;5019272;28;20220;-74
2022/06/01 09:13:23;;;;;;;8.20;3.40;;;;;;;;;;5015900;28;20223;-73
2022/06/01 09:16:07;;;;;;;2.60;2.17;;;;;;;;;;5001589;28;20232;-73
2022/06/01 09:18:41;;;;;;;2.80;2.40;;;;;;;;;;4966007;28;20303;-73
2022/06/01 09:24:22;;;;;;;2.72;2.53;;;;;;;;;;4984583;28;20216;-73
2022/06/01 09:27:09;;;;;;;3.95;2.90;;;;;;;;;;4970941;28;20324;-74
2022/06/01 09:29:45;;;;;;;2.40;2.20;;;;;;;;;;5010878;28;20709;-72
2022/06/01 09:32:34;;;;;;;2.75;2.15;;;;;;;;;;4968895;28;20247;-73
2022/06/01 09:35:03;;;;;;;2.20;2.00;;;;;;;;;;4995044;28;20590;-73
2022/06/01 09:37:34;;;;;;;2.17;2.00;;;;;;;;;;5007485;28;20220;-72
2022/06/01 09:40:01;;;;;;;2.80;1.80;;;;;;;;;;5014524;28;20224;-72
2022/06/01 09:42:33;;;;;;;2.05;1.95;;;;;;;;;;4987336;28;20275;-75
2022/06/01 09:44:59;;;;;;;2.58;2.30;;;;;;;;;;4991963;28;20262;-74
2022/06/01 09:47:36;;;;;;;2.58;2.38;;;;;;;;;;5004362;28;20235;-72
2022/06/01 09:50:04;;;;;;;2.30;2.10;;;;;;;;;;4989815;28;20231;-75
2022/06/01 09:52:32;;;;;;;2.47;2.20;;;;;;;;;;4989779;28;20223;-73
2022/06/01 09:55:29;;;;;;;2.30;2.10;;;;;;;;;;4986481;28;20224;-73
2022/06/01 09:58:09;;;;;;;3.05;2.50;;;;;;;;;;5003195;28;20209;-72
2022/06/01 10:06:19;;;;;;;2.78;2.58;;;;;;;;;;4984329;28;20241;-72
2022/06/01 10:09:03;;;;;;;3.60;2.42;;;;;;;;;;4996248;28;20228;-73
2022/06/01 10:11:34;;;;;;;3.17;2.92;;;;;;;;;;5004574;28;20308;-72
2022/06/01 10:14:36;;;;;;;2.83;2.30;;;;;;;;;;5003913;28;20232;-73
2022/06/01 10:17:43;;;;;;;2.78;2.50;;;;;;;;;;5008528;28;20232;-73
2022/06/01 10:20:31;;;;;;;3.33;2.50;;;;;;;;;;5015501;28;20230;-72
2022/06/01 10:23:19;;;;;;;3.35;2.25;;;;;;;;;;5032783;28;20303;-72
2022/06/01 10:25:50;;;;;;;2.10;1.92;;;;;;;;;;4989674;28;20320;-73
2022/06/01 10:28:17;;;;;;;2.47;2.00;;;;;;;;;;4978493;28;20228;-74
2022/06/01 10:30:53;;;;;;;1.95;1.85;;;;;;;;;;4997452;28;20327;-72
2022/06/01 10:33:38;;;;;;;2.03;1.92;;;;;;;;;;4985700;28;20212;-71
2022/06/01 10:36:49;;;;;;;2.47;2.13;;;;;;;;;;4999094;28;20259;-73
2022/06/01 10:39:32;;;;;;;2.00;1.88;;;;;;;;;;4995102;28;20247;-73
2022/06/01 10:42:24;;;;;;;3.58;2.15;;;;;;;;;;4982895;28;20263;-73
2022/06/01 10:44:58;;;;;;;2.00;1.90;;;;;;;;;;5013701;28;20220;-72
2022/06/01 10:47:30;;;;;;;2.85;2.15;;;;;;;;;;5018360;28;20602;-70
2022/06/01 10:50:09;;;;;;;2.70;2.50;;;;;;;;;;5021052;28;20604;-72
2022/06/01 10:53:03;;;;;;;3.45;3.22;;;;;;;;;;5015489;28;20236;-72
2022/06/01 10:55:34;;;;;;;6.90;4.50;;;;;;;;;;4997508;28;20217;-72
2022/06/01 10:58:03;;;;;;;4.55;4.15;;;;;;;;;;5015923;28;20307;-72
2022/06/01 11:00:41;;;;;;;4.97;4.35;;;;;;;;;;5021595;28;20216;-73
2022/06/01 11:03:24;;;;;;;5.47;4.95;;;;;;;;;;5007856;28;20225;-73
2022/06/01 11:06:11;;;;;;;4.93;4.53;;;;;;;;;;5009678;28;20260;-73
2022/06/01 11:08:48;;;;;;;4.97;4.50;;;;;;;;;;4997866;28;20314;-73
2022/06/01 11:11:39;;;;;;;3.75;3.40;;;;;;;;;;4994170;28;20234;-72
2022/06/01 11:14:18;;;;;;;2.97;2.67;;;;;;;;;;4992232;28;20228;-74
2022/06/01 11:16:55;;;;;;;4.07;2.55;;;;;;;;;;5010524;28;20233;-72
2022/06/01 11:19:33;;;;;;;2.15;2.00;;;;;;;;;;5011731;28;20220;-73
2022/06/01 11:22:24;;;;;;;2.38;2.03;;;;;;;;;;5023413;28;20282;-72
2022/06/01 11:25:05;;;;;;;1.90;1.80;;;;;;;;;;5004060;28;20252;-73
2022/06/01 11:27:33;;;;;;;1.90;1.80;;;;;;;;;;5018498;28;20248;-74
2022/06/01 11:30:05;;;;;;;2.50;2.28;;;;;;;;;;5019167;28;20220;-72
2022/06/01 11:32:35;;;;;;;3.13;2.28;;;;;;;;;;5016724;28;20232;-72
2022/06/01 11:35:06;;;;;;;2.60;2.40;;;;;;;;;;5008219;28;20228;-73
2022/06/01 11:38:00;;;;;;;2.95;2.40;;;;;;;;;;5018119;28;20225;-72
2022/06/01 11:40:31;;;;;;;2.50;2.28;;;;;;;;;;5007236;28;20229;-72
2022/06/01 11:43:00;;;;;;;2.90;2.65;;;;;;;;;;5019436;28;20901;-71
2022/06/01 11:45:48;;;;;;;2.38;2.17;;;;;;;;;;4996119;28;20270;-73
2022/06/01 11:48:21;;;;;;;3.25;2.78;;;;;;;;;;5013140;28;20254;-73
2022/06/01 11:50:55;;;;;;;3.47;2.65;;;;;;;;;;4994663;28;20228;-72
2022/06/01 11:53:42;;;;;;;4.13;2.92;;;;;;;;;;5012498;28;20231;-72
2022/06/01 11:56:25;;;;;;;3.45;2.67;;;;;;;;;;5026084;28;20228;-72
2022/06/01 11:59:22;;;;;;;2.10;2.00;;;;;;;;;;5025546;28;20698;-71
2022/06/01 12:01:56;;;;;;;1.95;1.80;;;;;;;;;;5009254;28;20656;-71
2022/06/01 12:04:32;;;;;;;1.40;1.30;;;;;;;;;;5022390;28;20396;-72
2022/06/01 12:07:19;;;;;;;1.10;1.10;;;;;;;;;;5019238;28;20231;-72
2022/06/01 12:09:45;;;;;;;0.90;0.90;;;;;;;;;;5015728;28;20227;-72
2022/06/01 12:12:23;;;;;;;0.90;0.90;;;;;;;;;;5005784;28;20224;-73
2022/06/01 12:15:01;;;;;;;1.80;1.70;;;;;;;;;;5019726;28;20289;-72
2022/06/01 12:17:31;;;;;;;2.40;2.20;;;;;;;;;;5004428;28;20225;-73
2022/06/01 12:20:12;;;;;;;2.85;2.65;;;;;;;;;;4994984;28;20216;-72
2022/06/01 12:28:51;;;;;;;2.70;2.50;;;;;;;;;;5032191;28;20231;-72
2022/06/01 12:31:22;;;;;;;2.58;2.38;;;;;;;;;;5001732;28;20243;-72
2022/06/01 12:34:08;;;;;;;2.88;2.60;;;;;;;;;;5026204;28;20220;-72
2022/06/01 12:36:41;;;;;;;2.92;2.72;;;;;;;;;;5022183;28;20228;-72
2022/06/01 12:39:08;;;;;;;3.50;3.20;;;;;;;;;;5017011;28;20699;-72
2022/06/01 12:41:36;;;;;;;3.55;3.20;;;;;;;;;;5002332;28;20267;-72
2022/06/01 12:44:09;;;;;;;4.75;3.38;;;;;;;;;;4999404;28;20228;-72
2022/06/01 12:46:40;;;;;;;3.30;2.67;;;;;;;;;;5023811;28;20680;-75
2022/06/01 12:49:36;;;;;;;3.33;3.03;;;;;;;;;;5025676;28;20744;-72
2022/06/01 12:52:08;;;;;;;3.60;2.80;;;;;;;;;;4995068;28;20295;-73
2022/06/01 12:54:51;;;;;;;2.97;2.78;;;;;;;;;;5005379;28;20623;-73
2022/06/01 12:57:41;;;;;;;3.40;3.10;;;;;;;;;;5028007;28;20271;-72
2022/06/01 13:00:10;;;;;;;3.17;2.90;;;;;;;;;;4996090;28;20225;-72
2022/06/01 13:02:36;;;;;;;3.35;2.85;;;;;;;;;;5029183;28;20240;-71
2022/06/01 13:05:05;;;;;;;2.80;2.60;;;;;;;;;;4982047;28;20225;-72
2022/06/01 13:07:36;;;;;;;3.45;2.80;;;;;;;;;;5005304;28;20227;-72
2022/06/01 13:10:13;;;;;;;3.08;2.88;;;;;;;;;;4985490;28;20243;-72
2022/06/01 13:12:40;;;;;;;2.90;2.70;;;;;;;;;;5005784;28;20228;-72
2022/06/01 13:15:25;;;;;;;4.13;2.90;;;;;;;;;;5018768;28;20779;-72
2022/06/01 13:18:02;;;;;;;3.05;2.83;;;;;;;;;;4988298;28;20697;-72
2022/06/01 13:20:38;;;;;;;2.15;2.03;;;;;;;;;;5012183;28;20224;-71
2022/06/01 13:23:28;;;;;;;2.38;2.17;;;;;;;;;;5002091;28;20310;-72
2022/06/01 13:25:55;;;;;;;2.10;1.90;;;;;;;;;;5013547;28;20251;-73
2022/06/01 13:28:20;;;;;;;2.03;1.92;;;;;;;;;;4997298;28;20300;-72
2022/06/01 13:30:46;;;;;;;1.77;1.67;;;;;;;;;;4983487;28;20655;-73
2022/06/01 13:33:37;;;;;;;2.78;1.75;;;;;;;;;;4996340;28;20278;-73
2022/06/01 13:36:04;;;;;;;2.05;1.70;;;;;;;;;;5011390;28;20243;-72
2022/06/01 13:38:49;;;;;;;1.52;1.42;;;;;;;;;;5010139;28;20311;-72
2022/06/01 13:41:21;;;;;;;1.60;1.50;;;;;;;;;;5014242;28;20217;-74
2022/06/01 13:43:48;;;;;;;3.40;1.40;;;;;;;;;;5014064;28;20249;-74
2022/06/01 13:46:35;;;;;;;1.90;1.80;;;;;;;;;;5004298;28;20622;-72
2022/06/01 13:49:01;;;;;;;2.03;1.83;;;;;;;;;;5007078;28;20231;-73
2022/06/01 13:51:57;;;;;;;1.55;1.45;;;;;;;;;;5001382;28;20275;-72
2022/06/01 13:54:26;;;;;;;1.80;1.70;;;;;;;;;;5036868;28;20246;-74
2022/06/01 13:57:13;;;;;;;3.03;1.80;;;;;;;;;;5021255;28;20234;-72
2022/06/01 13:59:53;;;;;;;1.73;1.63;;;;;;;;;;5021740;28;20224;-73
2022/06/01 14:02:32;;;;;;;1.80;1.70;;;;;;;;;;4983111;28;20282;-73
2022/06/01 14:05:22;;;;;;;2.58;1.95;;;;;;;;;;4989347;28;20221;-74
2022/06/01 14:08:12;;;;;;;2.00;1.80;;;;;;;;;;5010519;28;20229;-72
2022/06/01 14:10:42;;;;;;;1.98;1.85;;;;;;;;;;5006272;28;20235;-75
2022/06/01 14:13:08;;;;;;;3.35;2.00;;;;;;;;;;5011905;28;20702;-73
2022/06/01 14:15:37;;;;;;;2.30;1.73;;;;;;;;;;4981277;28;20277;-72
2022/06/01 14:18:07;;;;;;;3.88;1.75;;;;;;;;;;4982625;28;20212;-72
2022/06/01 14:20:35;;;;;;;1.90;1.80;;;;;;;;;;5004086;28;20225;-73
2022/06/01 14:23:03;;;;;;;2.17;1.70;;;;;;;;;;5006123;28;20228;-73
2022/06/01 14:28:31;;;;;;;1.50;1.40;;;;;;;;;;5018505;28;20227;-73
2022/06/01 14:30:57;;;;;;;2.25;1.63;;;;;;;;;;5011643;28;20353;-72
2022/06/01 14:33:25;;;;;;;1.65;1.50;;;;;;;;;;5001300;28;20701;-74
2022/06/01 14:35:54;;;;;;;1.60;1.50;;;;;;;;;;5014470;28;20212;-72
2022/06/01 14:38:20;;;;;;;1.10;1.10;;;;;;;;;;4977845;28;20216;-73
2022/06/01 14:40:48;;;;;;;1.90;1.20;;;;;;;;;;4991243;28;20915;-72
2022/06/01 14:43:17;;;;;;;1.30;1.10;;;;;;;;;;5009693;28;20214;-74
2022/06/01 14:45:43;;;;;;;0.93;0.90;;;;;;;;;;4969614;28;20229;-73
2022/06/01 14:48:11;;;;;;;2.92;1.15;;;;;;;;;;5015132;28;20581;-73
2022/06/01 14:50:39;;;;;;;1.85;0.80;;;;;;;;;;5010016;28;20248;-73
2022/06/01 14:53:08;;;;;;;0.93;0.80;;;;;;;;;;5010558;28;20708;-74
2022/06/01 14:55:37;;;;;;;1.75;0.98;;;;;;;;;;5002837;28;20220;-72
2022/06/01 14:58:05;;;;;;;1.50;1.20;;;;;;;;;;5023230;28;20229;-74
2022/06/01 15:00:30;;;;;;;1.20;1.10;;;;;;;;;;5004252;28;20630;-74
2022/06/01 15:02:56;;;;;;;0.93;0.93;;;;;;;;;;5001785;28;20233;-74
2022/06/01 15:05:22;;;;;;;1.45;1.35;;;;;;;;;;4981180;28;20236;-74
2022/06/01 15:07:47;;;;;;;1.50;1.40;;;;;;;;;;4999327;28;20228;-75
2022/06/01 15:10:15;;;;;;;1.30;1.20;;;;;;;;;;5015953;28;20219;-75
2022/06/01 15:12:40;;;;;;;2.78;2.10;;;;;;;;;;4985138;28;20232;-75
2022/06/01 15:15:09;;;;;;;2.42;2.25;;;;;;;;;;4994467;28;20379;-71
2022/06/01 15:17:39;;;;;;;3.42;2.45;;;;;;;;;;5012380;28;20259;-74
2022/06/01 15:20:06;;;;;;;3.10;2.80;;;;;;;;;;4992007;28;20232;-73
2022/06/01 15:22:34;;;;;;;2.58;2.38;;;;;;;;;;4997102;28;20221;-72
2022/06/01 15:25:00;;;;;;;4.38;2.75;;;;;;;;;;5000132;28;20278;-74
2022/06/01 15:27:28;;;;;;;3.00;2.80;;;;;;;;;;4999361;28;20691;-73
2022/06/01 15:40:54;;;;;;;8.50;7.75;;;;;;;;;;5015187;28;20644;-74
2022/06/01 15:43:20;;;;;;;8.63;7.97;;;;;;;;;;4997645;28;20581;-74
2022/06/01 15:45:48;;;;;;;9.70;8.90;;;;;;;;;;4994411;28;20236;-72
2022/06/01 15:48:15;;;;;;;8.38;7.68;;;;;;;;;;4992224;28;20240;-72
2022/06/01 15:50:41;;;;;;;8.80;8.10;;;;;;;;;;4983560;28;20826;-73
2022/06/01 15:53:06;;;;;;;7.78;7.18;;;;;;;;;;4998679;28;20227;-74
2022/06/01 15:55:34;;;;;;;7.47;6.87;;;;;;;;;;5010367;28;20263;-74